sensor_id;sensor_type;location;lat;lon;timestamp;temperature;humidity
74617;DHT22;63123;50.906;4.198;2023-07-29T00:01:34;20.90;72.70
74617;DHT22;63123;50.906;4.198;2023-07-29T00:04:00;20.90;72.70
74617;DHT22;63123;50.906;4.198;2023-07-29T00:06:26;20.90;72.70
74617;DHT22;63123;50.906;4.198;2023-07-29T00:08:51;20.90;72.70
74617;DHT22;63123;50.906;4.198;2023-07-29T00:11:17;20.90;72.70
74617;DHT22;63123;50.906;4.198;2023-07-29T00:13:43;20.90;72.70
74617;DHT22;63123;50.906;4.198;2023-07-29T00:16:08;20.90;72.60
74617;DHT22;63123;50.906;4.198;2023-07-29T00:18:34;20.90;73.00
74617;DHT22;63123;50.906;4.198;2023-07-29T00:21:00;20.90;72.60
74617;DHT22;63123;50.906;4.198;2023-07-29T00:23:25;20.90;72.60
74617;DHT22;63123;50.906;4.198;2023-07-29T00:25:51;20.90;72.60
74617;DHT22;63123;50.906;4.198;2023-07-29T00:28:16;20.90;72.60
74617;DHT22;63123;50.906;4.198;2023-07-29T00:30:42;20.90;72.60
74617;DHT22;63123;50.906;4.198;2023-07-29T00:33:08;20.90;72.60
74617;DHT22;63123;50.906;4.198;2023-07-29T00:35:34;20.90;72.70
74617;DHT22;63123;50.906;4.198;2023-07-29T00:38:00;20.90;73.20
74617;DHT22;63123;50.906;4.198;2023-07-29T00:40:28;20.90;72.60
74617;DHT22;63123;50.906;4.198;2023-07-29T00:42:54;20.90;72.60
74617;DHT22;63123;50.906;4.198;2023-07-29T00:45:19;20.90;72.60
74617;DHT22;63123;50.906;4.198;2023-07-29T00:47:45;20.90;72.60
74617;DHT22;63123;50.906;4.198;2023-07-29T00:50:12;20.90;72.60
74617;DHT22;63123;50.906;4.198;2023-07-29T00:52:38;20.90;72.60
74617;DHT22;63123;50.906;4.198;2023-07-29T00:55:05;20.90;72.50
74617;DHT22;63123;50.906;4.198;2023-07-29T00:57:32;20.90;72.50
74617;DHT22;63123;50.906;4.198;2023-07-29T00:59:59;20.90;72.60
74617;DHT22;63123;50.906;4.198;2023-07-29T01:02:26;20.90;72.50
74617;DHT22;63123;50.906;4.198;2023-07-29T01:04:56;20.90;72.50
74617;DHT22;63123;50.906;4.198;2023-07-29T01:07:36;20.90;72.50
74617;DHT22;63123;50.906;4.198;2023-07-29T01:12:51;20.90;72.50
74617;DHT22;63123;50.906;4.198;2023-07-29T01:15:31;20.90;72.50
74617;DHT22;63123;50.906;4.198;2023-07-29T01:18:06;20.90;72.50
74617;DHT22;63123;50.906;4.198;2023-07-29T01:20:37;20.90;72.50
74617;DHT22;63123;50.906;4.198;2023-07-29T01:23:04;20.90;72.50
74617;DHT22;63123;50.906;4.198;2023-07-29T01:25:29;20.90;72.50
74617;DHT22;63123;50.906;4.198;2023-07-29T01:27:55;20.90;72.50
74617;DHT22;63123;50.906;4.198;2023-07-29T01:30:24;20.80;72.40
74617;DHT22;63123;50.906;4.198;2023-07-29T01:32:59;20.90;72.50
74617;DHT22;63123;50.906;4.198;2023-07-29T01:35:36;20.90;72.50
74617;DHT22;63123;50.906;4.198;2023-07-29T01:38:18;20.90;72.50
74617;DHT22;63123;50.906;4.198;2023-07-29T01:40:44;20.90;72.50
74617;DHT22;63123;50.906;4.198;2023-07-29T01:43:11;20.90;72.50
74617;DHT22;63123;50.906;4.198;2023-07-29T01:45:37;20.90;72.40
74617;DHT22;63123;50.906;4.198;2023-07-29T01:48:07;20.80;72.40
74617;DHT22;63123;50.906;4.198;2023-07-29T01:50:34;20.90;72.40
74617;DHT22;63123;50.906;4.198;2023-07-29T01:53:00;20.90;72.40
74617;DHT22;63123;50.906;4.198;2023-07-29T01:55:25;20.80;72.30
74617;DHT22;63123;50.906;4.198;2023-07-29T01:57:51;20.90;72.40
74617;DHT22;63123;50.906;4.198;2023-07-29T02:00:18;20.90;72.40
74617;DHT22;63123;50.906;4.198;2023-07-29T02:02:43;20.90;72.40
74617;DHT22;63123;50.906;4.198;2023-07-29T02:05:09;20.80;72.30
74617;DHT22;63123;50.906;4.198;2023-07-29T02:07:34;20.90;72.40
74617;DHT22;63123;50.906;4.198;2023-07-29T02:10:00;20.90;72.40
74617;DHT22;63123;50.906;4.198;2023-07-29T02:12:26;20.90;72.40
74617;DHT22;63123;50.906;4.198;2023-07-29T02:14:51;20.80;72.30
74617;DHT22;63123;50.906;4.198;2023-07-29T02:17:17;20.90;72.40
74617;DHT22;63123;50.906;4.198;2023-07-29T02:19:42;20.80;72.30
74617;DHT22;63123;50.906;4.198;2023-07-29T02:22:09;20.90;72.40
74617;DHT22;63123;50.906;4.198;2023-07-29T02:24:35;20.90;72.40
74617;DHT22;63123;50.906;4.198;2023-07-29T02:27:00;20.80;72.30
74617;DHT22;63123;50.906;4.198;2023-07-29T02:29:26;20.90;72.30
74617;DHT22;63123;50.906;4.198;2023-07-29T02:31:52;20.90;72.40
74617;DHT22;63123;50.906;4.198;2023-07-29T02:34:17;20.90;72.40
74617;DHT22;63123;50.906;4.198;2023-07-29T02:36:43;20.90;72.30
74617;DHT22;63123;50.906;4.198;2023-07-29T02:39:09;20.90;72.40
74617;DHT22;63123;50.906;4.198;2023-07-29T02:41:34;20.80;72.30
74617;DHT22;63123;50.906;4.198;2023-07-29T02:44:01;20.80;72.30
74617;DHT22;63123;50.906;4.198;2023-07-29T02:46:27;20.80;72.30
74617;DHT22;63123;50.906;4.198;2023-07-29T02:48:52;20.90;72.30
74617;DHT22;63123;50.906;4.198;2023-07-29T02:51:18;20.90;72.30
74617;DHT22;63123;50.906;4.198;2023-07-29T02:53:43;20.80;72.20
74617;DHT22;63123;50.906;4.198;2023-07-29T02:56:09;20.80;72.20
74617;DHT22;63123;50.906;4.198;2023-07-29T02:58:36;20.90;72.30
74617;DHT22;63123;50.906;4.198;2023-07-29T03:01:05;20.80;72.20
74617;DHT22;63123;50.906;4.198;2023-07-29T03:03:31;20.90;72.30
74617;DHT22;63123;50.906;4.198;2023-07-29T03:06:05;20.80;72.20
74617;DHT22;63123;50.906;4.198;2023-07-29T03:08:31;20.80;72.20
74617;DHT22;63123;50.906;4.198;2023-07-29T03:10:57;20.80;72.20
74617;DHT22;63123;50.906;4.198;2023-07-29T03:13:23;20.90;72.20
74617;DHT22;63123;50.906;4.198;2023-07-29T03:15:49;20.90;72.20
74617;DHT22;63123;50.906;4.198;2023-07-29T03:18:15;20.90;72.20
74617;DHT22;63123;50.906;4.198;2023-07-29T03:20:41;20.80;72.10
74617;DHT22;63123;50.906;4.198;2023-07-29T03:23:06;20.80;72.20
74617;DHT22;63123;50.906;4.198;2023-07-29T03:25:32;20.80;72.10
74617;DHT22;63123;50.906;4.198;2023-07-29T03:27:58;20.80;72.10
74617;DHT22;63123;50.906;4.198;2023-07-29T03:30:23;20.90;72.20
74617;DHT22;63123;50.906;4.198;2023-07-29T03:32:49;20.80;72.10
74617;DHT22;63123;50.906;4.198;2023-07-29T03:35:15;20.90;72.20
74617;DHT22;63123;50.906;4.198;2023-07-29T03:37:41;20.80;72.10
74617;DHT22;63123;50.906;4.198;2023-07-29T03:40:07;20.90;72.10
74617;DHT22;63123;50.906;4.198;2023-07-29T03:42:34;20.90;72.10
74617;DHT22;63123;50.906;4.198;2023-07-29T03:45:00;20.80;72.00
74617;DHT22;63123;50.906;4.198;2023-07-29T03:47:26;20.90;72.10
74617;DHT22;63123;50.906;4.198;2023-07-29T03:49:52;20.90;72.10
74617;DHT22;63123;50.906;4.198;2023-07-29T03:52:17;20.90;72.10
74617;DHT22;63123;50.906;4.198;2023-07-29T03:54:43;20.80;72.00
74617;DHT22;63123;50.906;4.198;2023-07-29T03:57:08;20.90;72.10
74617;DHT22;63123;50.906;4.198;2023-07-29T03:59:34;20.80;72.00
74617;DHT22;63123;50.906;4.198;2023-07-29T04:02:00;20.80;72.00
74617;DHT22;63123;50.906;4.198;2023-07-29T04:04:25;20.80;72.00
74617;DHT22;63123;50.906;4.198;2023-07-29T04:06:51;20.80;72.00
74617;DHT22;63123;50.906;4.198;2023-07-29T04:09:17;20.90;72.00
74617;DHT22;63123;50.906;4.198;2023-07-29T04:11:43;20.80;72.00
74617;DHT22;63123;50.906;4.198;2023-07-29T04:14:08;20.90;72.00
74617;DHT22;63123;50.906;4.198;2023-07-29T04:16:34;20.90;72.00
74617;DHT22;63123;50.906;4.198;2023-07-29T04:19:00;20.90;72.00
74617;DHT22;63123;50.906;4.198;2023-07-29T04:21:25;20.80;71.90
74617;DHT22;63123;50.906;4.198;2023-07-29T04:23:51;20.90;72.00
74617;DHT22;63123;50.906;4.198;2023-07-29T04:26:16;20.80;71.90
74617;DHT22;63123;50.906;4.198;2023-07-29T04:28:42;20.80;71.90
74617;DHT22;63123;50.906;4.198;2023-07-29T04:31:08;20.80;71.90
74617;DHT22;63123;50.906;4.198;2023-07-29T04:33:33;20.90;72.00
74617;DHT22;63123;50.906;4.198;2023-07-29T04:35:59;20.80;71.90
74617;DHT22;63123;50.906;4.198;2023-07-29T04:38:31;20.80;71.90
74617;DHT22;63123;50.906;4.198;2023-07-29T04:40:58;20.90;71.90
74617;DHT22;63123;50.906;4.198;2023-07-29T04:43:32;20.80;71.90
74617;DHT22;63123;50.906;4.198;2023-07-29T04:45:58;20.90;71.90
74617;DHT22;63123;50.906;4.198;2023-07-29T04:48:24;20.80;71.90
74617;DHT22;63123;50.906;4.198;2023-07-29T04:50:49;20.80;71.90
74617;DHT22;63123;50.906;4.198;2023-07-29T04:53:15;20.90;71.90
74617;DHT22;63123;50.906;4.198;2023-07-29T04:55:42;20.80;71.90
74617;DHT22;63123;50.906;4.198;2023-07-29T04:58:08;20.80;71.90
74617;DHT22;63123;50.906;4.198;2023-07-29T05:00:34;20.90;71.90
74617;DHT22;63123;50.906;4.198;2023-07-29T05:02:59;20.90;72.50
74617;DHT22;63123;50.906;4.198;2023-07-29T05:05:26;20.80;71.90
74617;DHT22;63123;50.906;4.198;2023-07-29T05:07:52;20.80;71.90
74617;DHT22;63123;50.906;4.198;2023-07-29T05:10:17;20.80;71.90
74617;DHT22;63123;50.906;4.198;2023-07-29T05:12:43;20.80;71.90
74617;DHT22;63123;50.906;4.198;2023-07-29T05:15:09;20.80;71.90
74617;DHT22;63123;50.906;4.198;2023-07-29T05:17:35;20.90;71.90
74617;DHT22;63123;50.906;4.198;2023-07-29T05:20:00;20.80;71.90
74617;DHT22;63123;50.906;4.198;2023-07-29T05:22:26;20.90;71.90
74617;DHT22;63123;50.906;4.198;2023-07-29T05:24:51;20.90;71.90
74617;DHT22;63123;50.906;4.198;2023-07-29T05:27:17;20.90;71.90
74617;DHT22;63123;50.906;4.198;2023-07-29T05:29:43;20.90;71.90
74617;DHT22;63123;50.906;4.198;2023-07-29T05:32:08;20.90;71.90
74617;DHT22;63123;50.906;4.198;2023-07-29T05:34:34;20.90;71.90
74617;DHT22;63123;50.906;4.198;2023-07-29T05:36:59;20.90;71.90
74617;DHT22;63123;50.906;4.198;2023-07-29T05:39:25;20.80;71.90
74617;DHT22;63123;50.906;4.198;2023-07-29T05:41:51;20.90;71.90
74617;DHT22;63123;50.906;4.198;2023-07-29T05:44:16;20.90;71.90
74617;DHT22;63123;50.906;4.198;2023-07-29T05:46:42;20.90;71.90
74617;DHT22;63123;50.906;4.198;2023-07-29T05:49:07;20.90;71.90
74617;DHT22;63123;50.906;4.198;2023-07-29T05:51:33;20.90;71.90
74617;DHT22;63123;50.906;4.198;2023-07-29T05:53:58;20.90;71.90
74617;DHT22;63123;50.906;4.198;2023-07-29T05:56:24;20.90;71.90
74617;DHT22;63123;50.906;4.198;2023-07-29T05:58:50;20.90;71.90
74617;DHT22;63123;50.906;4.198;2023-07-29T06:01:15;20.90;71.90
74617;DHT22;63123;50.906;4.198;2023-07-29T06:03:41;20.90;71.90
74617;DHT22;63123;50.906;4.198;2023-07-29T06:06:07;20.90;71.90
74617;DHT22;63123;50.906;4.198;2023-07-29T06:08:32;20.90;71.90
74617;DHT22;63123;50.906;4.198;2023-07-29T06:11:00;20.90;71.90
74617;DHT22;63123;50.906;4.198;2023-07-29T06:13:25;20.80;71.80
74617;DHT22;63123;50.906;4.198;2023-07-29T06:15:51;20.80;71.90
74617;DHT22;63123;50.906;4.198;2023-07-29T06:18:16;20.90;71.90
74617;DHT22;63123;50.906;4.198;2023-07-29T06:20:42;20.90;71.90
74617;DHT22;63123;50.906;4.198;2023-07-29T06:23:08;20.80;71.80
74617;DHT22;63123;50.906;4.198;2023-07-29T06:25:34;20.90;71.90
74617;DHT22;63123;50.906;4.198;2023-07-29T06:27:59;20.90;71.90
74617;DHT22;63123;50.906;4.198;2023-07-29T06:30:25;20.80;71.80
74617;DHT22;63123;50.906;4.198;2023-07-29T06:32:51;20.90;71.90
74617;DHT22;63123;50.906;4.198;2023-07-29T06:35:16;20.90;71.90
74617;DHT22;63123;50.906;4.198;2023-07-29T06:37:42;20.80;71.80
74617;DHT22;63123;50.906;4.198;2023-07-29T06:40:08;20.90;71.90
74617;DHT22;63123;50.906;4.198;2023-07-29T06:42:33;20.90;71.90
74617;DHT22;63123;50.906;4.198;2023-07-29T06:44:59;20.90;71.90
74617;DHT22;63123;50.906;4.198;2023-07-29T06:47:25;20.90;71.80
74617;DHT22;63123;50.906;4.198;2023-07-29T06:49:50;20.90;71.90
74617;DHT22;63123;50.906;4.198;2023-07-29T06:52:16;20.90;71.80
74617;DHT22;63123;50.906;4.198;2023-07-29T06:54:41;20.90;71.80
74617;DHT22;63123;50.906;4.198;2023-07-29T06:57:07;20.90;71.80
74617;DHT22;63123;50.906;4.198;2023-07-29T06:59:33;20.90;71.80
74617;DHT22;63123;50.906;4.198;2023-07-29T07:01:59;20.90;71.80
74617;DHT22;63123;50.906;4.198;2023-07-29T07:04:25;20.90;71.80
74617;DHT22;63123;50.906;4.198;2023-07-29T07:06:51;20.90;71.80
74617;DHT22;63123;50.906;4.198;2023-07-29T07:09:16;20.90;71.80
74617;DHT22;63123;50.906;4.198;2023-07-29T07:11:42;20.90;71.80
74617;DHT22;63123;50.906;4.198;2023-07-29T07:14:07;20.90;71.80
74617;DHT22;63123;50.906;4.198;2023-07-29T07:16:33;20.80;72.30
74617;DHT22;63123;50.906;4.198;2023-07-29T07:19:00;20.90;72.40
74617;DHT22;63123;50.906;4.198;2023-07-29T07:21:26;20.90;71.80
74617;DHT22;63123;50.906;4.198;2023-07-29T07:23:51;20.90;71.80
74617;DHT22;63123;50.906;4.198;2023-07-29T07:26:17;20.90;71.80
74617;DHT22;63123;50.906;4.198;2023-07-29T07:28:43;20.90;71.80
74617;DHT22;63123;50.906;4.198;2023-07-29T07:31:08;20.90;71.80
74617;DHT22;63123;50.906;4.198;2023-07-29T07:33:34;20.90;71.80
74617;DHT22;63123;50.906;4.198;2023-07-29T07:35:59;20.90;71.80
74617;DHT22;63123;50.906;4.198;2023-07-29T07:38:25;20.90;71.80
74617;DHT22;63123;50.906;4.198;2023-07-29T07:40:56;20.90;72.50
74617;DHT22;63123;50.906;4.198;2023-07-29T07:43:23;20.90;72.00
74617;DHT22;63123;50.906;4.198;2023-07-29T07:45:49;20.90;71.80
74617;DHT22;63123;50.906;4.198;2023-07-29T07:48:14;20.90;71.90
74617;DHT22;63123;50.906;4.198;2023-07-29T07:50:42;20.90;71.90
74617;DHT22;63123;50.906;4.198;2023-07-29T07:53:08;20.90;71.80
74617;DHT22;63123;50.906;4.198;2023-07-29T07:55:33;20.90;71.80
74617;DHT22;63123;50.906;4.198;2023-07-29T07:57:59;20.90;72.50
74617;DHT22;63123;50.906;4.198;2023-07-29T08:00:24;20.90;71.80
74617;DHT22;63123;50.906;4.198;2023-07-29T08:02:50;20.90;71.80
74617;DHT22;63123;50.906;4.198;2023-07-29T08:05:15;20.90;71.90
74617;DHT22;63123;50.906;4.198;2023-07-29T08:07:41;20.90;71.80
74617;DHT22;63123;50.906;4.198;2023-07-29T08:10:07;20.90;71.80
74617;DHT22;63123;50.906;4.198;2023-07-29T08:12:32;20.90;71.80
74617;DHT22;63123;50.906;4.198;2023-07-29T08:14:58;20.90;71.90
74617;DHT22;63123;50.906;4.198;2023-07-29T08:17:24;20.90;71.80
74617;DHT22;63123;50.906;4.198;2023-07-29T08:19:49;20.90;71.90
74617;DHT22;63123;50.906;4.198;2023-07-29T08:22:15;20.90;71.90
74617;DHT22;63123;50.906;4.198;2023-07-29T08:24:42;20.90;71.90
74617;DHT22;63123;50.906;4.198;2023-07-29T08:27:08;20.90;71.90
74617;DHT22;63123;50.906;4.198;2023-07-29T08:29:33;20.90;71.80
74617;DHT22;63123;50.906;4.198;2023-07-29T08:31:59;20.90;71.90
74617;DHT22;63123;50.906;4.198;2023-07-29T08:34:25;20.90;72.50
74617;DHT22;63123;50.906;4.198;2023-07-29T08:36:50;20.90;71.90
74617;DHT22;63123;50.906;4.198;2023-07-29T08:39:16;20.90;71.90
74617;DHT22;63123;50.906;4.198;2023-07-29T08:41:51;20.90;71.90
74617;DHT22;63123;50.906;4.198;2023-07-29T08:44:22;20.90;71.90
74617;DHT22;63123;50.906;4.198;2023-07-29T08:46:49;20.90;71.80
74617;DHT22;63123;50.906;4.198;2023-07-29T08:49:16;20.90;71.90
74617;DHT22;63123;50.906;4.198;2023-07-29T08:51:46;20.90;71.80
74617;DHT22;63123;50.906;4.198;2023-07-29T08:54:12;20.90;71.90
74617;DHT22;63123;50.906;4.198;2023-07-29T08:56:41;20.90;71.90
74617;DHT22;63123;50.906;4.198;2023-07-29T08:59:08;20.90;71.90
74617;DHT22;63123;50.906;4.198;2023-07-29T09:01:34;20.90;71.80
74617;DHT22;63123;50.906;4.198;2023-07-29T09:04:00;20.90;71.90
74617;DHT22;63123;50.906;4.198;2023-07-29T09:06:26;20.90;71.90
74617;DHT22;63123;50.906;4.198;2023-07-29T09:08:53;20.90;71.90
74617;DHT22;63123;50.906;4.198;2023-07-29T09:11:20;20.90;71.90
74617;DHT22;63123;50.906;4.198;2023-07-29T09:13:46;20.90;71.90
74617;DHT22;63123;50.906;4.198;2023-07-29T09:16:12;20.90;71.90
74617;DHT22;63123;50.906;4.198;2023-07-29T09:18:38;20.90;71.90
74617;DHT22;63123;50.906;4.198;2023-07-29T09:21:04;20.90;71.90
74617;DHT22;63123;50.906;4.198;2023-07-29T09:23:39;20.90;71.90
74617;DHT22;63123;50.906;4.198;2023-07-29T09:26:05;20.90;71.90
74617;DHT22;63123;50.906;4.198;2023-07-29T09:28:36;20.90;71.80
74617;DHT22;63123;50.906;4.198;2023-07-29T09:31:02;20.90;72.50
74617;DHT22;63123;50.906;4.198;2023-07-29T09:33:29;20.90;71.90
74617;DHT22;63123;50.906;4.198;2023-07-29T09:35:57;20.90;71.90
74617;DHT22;63123;50.906;4.198;2023-07-29T09:38:29;20.90;71.90
74617;DHT22;63123;50.906;4.198;2023-07-29T09:40:56;20.90;71.90
74617;DHT22;63123;50.906;4.198;2023-07-29T09:43:29;20.90;71.90
74617;DHT22;63123;50.906;4.198;2023-07-29T09:45:55;20.90;71.90
74617;DHT22;63123;50.906;4.198;2023-07-29T09:48:23;20.90;71.90
74617;DHT22;63123;50.906;4.198;2023-07-29T09:50:48;20.90;71.90
74617;DHT22;63123;50.906;4.198;2023-07-29T09:53:14;20.90;71.90
74617;DHT22;63123;50.906;4.198;2023-07-29T09:55:40;20.90;71.90
74617;DHT22;63123;50.906;4.198;2023-07-29T09:58:11;20.90;71.90
74617;DHT22;63123;50.906;4.198;2023-07-29T10:00:37;20.90;71.90
74617;DHT22;63123;50.906;4.198;2023-07-29T10:03:04;20.90;71.90
74617;DHT22;63123;50.906;4.198;2023-07-29T10:05:30;20.90;72.00
74617;DHT22;63123;50.906;4.198;2023-07-29T10:07:56;20.90;72.00
74617;DHT22;63123;50.906;4.198;2023-07-29T10:10:22;20.90;72.00
74617;DHT22;63123;50.906;4.198;2023-07-29T10:12:48;20.90;72.00
74617;DHT22;63123;50.906;4.198;2023-07-29T10:15:15;20.90;71.90
74617;DHT22;63123;50.906;4.198;2023-07-29T10:17:41;20.90;72.00
74617;DHT22;63123;50.906;4.198;2023-07-29T10:20:08;20.90;72.00
74617;DHT22;63123;50.906;4.198;2023-07-29T10:22:44;20.90;72.10
74617;DHT22;63123;50.906;4.198;2023-07-29T10:25:21;20.90;72.10
74617;DHT22;63123;50.906;4.198;2023-07-29T10:27:56;20.90;72.10
74617;DHT22;63123;50.906;4.198;2023-07-29T10:30:24;20.90;72.10
74617;DHT22;63123;50.906;4.198;2023-07-29T10:32:50;20.90;72.00
74617;DHT22;63123;50.906;4.198;2023-07-29T10:35:17;20.90;72.10
74617;DHT22;63123;50.906;4.198;2023-07-29T10:37:43;20.90;72.10
74617;DHT22;63123;50.906;4.198;2023-07-29T10:40:10;20.90;72.10
74617;DHT22;63123;50.906;4.198;2023-07-29T10:42:37;20.90;72.20
74617;DHT22;63123;50.906;4.198;2023-07-29T10:45:21;20.90;72.10
74617;DHT22;63123;50.906;4.198;2023-07-29T10:47:47;20.90;72.30
74617;DHT22;63123;50.906;4.198;2023-07-29T10:50:20;20.90;72.10
74617;DHT22;63123;50.906;4.198;2023-07-29T10:52:51;20.90;72.10
74617;DHT22;63123;50.906;4.198;2023-07-29T10:55:34;20.90;72.10
74617;DHT22;63123;50.906;4.198;2023-07-29T10:58:22;20.90;72.10
74617;DHT22;63123;50.906;4.198;2023-07-29T11:00:49;20.90;72.30
74617;DHT22;63123;50.906;4.198;2023-07-29T11:03:14;20.90;72.10
74617;DHT22;63123;50.906;4.198;2023-07-29T11:05:48;20.90;72.80
74617;DHT22;63123;50.906;4.198;2023-07-29T11:08:18;20.90;72.10
74617;DHT22;63123;50.906;4.198;2023-07-29T11:10:58;20.90;72.10
74617;DHT22;63123;50.906;4.198;2023-07-29T11:13:26;20.90;72.20
74617;DHT22;63123;50.906;4.198;2023-07-29T11:15:54;20.90;72.10
74617;DHT22;63123;50.906;4.198;2023-07-29T11:18:20;20.90;72.50
74617;DHT22;63123;50.906;4.198;2023-07-29T11:20:46;20.90;72.20
74617;DHT22;63123;50.906;4.198;2023-07-29T11:23:13;20.90;72.10
74617;DHT22;63123;50.906;4.198;2023-07-29T11:25:39;20.90;72.10
74617;DHT22;63123;50.906;4.198;2023-07-29T11:28:04;20.90;72.10
74617;DHT22;63123;50.906;4.198;2023-07-29T11:30:30;20.90;72.10
74617;DHT22;63123;50.906;4.198;2023-07-29T11:32:57;20.90;72.10
74617;DHT22;63123;50.906;4.198;2023-07-29T11:35:23;20.90;72.10
74617;DHT22;63123;50.906;4.198;2023-07-29T11:37:53;20.90;72.10
74617;DHT22;63123;50.906;4.198;2023-07-29T11:40:20;20.90;72.10
74617;DHT22;63123;50.906;4.198;2023-07-29T11:42:47;20.90;72.20
74617;DHT22;63123;50.906;4.198;2023-07-29T11:45:14;20.90;72.20
74617;DHT22;63123;50.906;4.198;2023-07-29T11:47:40;20.90;72.30
74617;DHT22;63123;50.906;4.198;2023-07-29T11:50:10;20.90;72.20
74617;DHT22;63123;50.906;4.198;2023-07-29T11:52:37;20.90;72.20
74617;DHT22;63123;50.906;4.198;2023-07-29T11:55:05;20.90;72.30
74617;DHT22;63123;50.906;4.198;2023-07-29T11:57:34;20.90;72.30
74617;DHT22;63123;50.906;4.198;2023-07-29T12:00:05;21.00;72.30
74617;DHT22;63123;50.906;4.198;2023-07-29T12:02:32;20.90;72.30
74617;DHT22;63123;50.906;4.198;2023-07-29T12:04:58;20.90;72.40
74617;DHT22;63123;50.906;4.198;2023-07-29T12:07:24;20.90;72.40
74617;DHT22;63123;50.906;4.198;2023-07-29T12:09:50;20.90;72.30
74617;DHT22;63123;50.906;4.198;2023-07-29T12:12:17;20.90;72.40
74617;DHT22;63123;50.906;4.198;2023-07-29T12:14:45;21.00;72.30
74617;DHT22;63123;50.906;4.198;2023-07-29T12:17:12;21.00;72.40
74617;DHT22;63123;50.906;4.198;2023-07-29T12:19:39;20.90;72.30
74617;DHT22;63123;50.906;4.198;2023-07-29T12:22:06;21.00;72.40
74617;DHT22;63123;50.906;4.198;2023-07-29T12:24:37;20.90;72.40
74617;DHT22;63123;50.906;4.198;2023-07-29T12:27:02;20.90;72.50
74617;DHT22;63123;50.906;4.198;2023-07-29T12:29:28;20.90;72.50
74617;DHT22;63123;50.906;4.198;2023-07-29T12:32:04;21.00;72.60
74617;DHT22;63123;50.906;4.198;2023-07-29T12:34:31;20.90;72.60
74617;DHT22;63123;50.906;4.198;2023-07-29T12:36:58;20.90;72.50
74617;DHT22;63123;50.906;4.198;2023-07-29T12:39:26;20.90;72.50
74617;DHT22;63123;50.906;4.198;2023-07-29T12:41:57;21.00;72.70
74617;DHT22;63123;50.906;4.198;2023-07-29T12:44:24;21.00;73.20
74617;DHT22;63123;50.906;4.198;2023-07-29T12:46:50;21.00;72.70
74617;DHT22;63123;50.906;4.198;2023-07-29T12:49:16;21.00;72.80
74617;DHT22;63123;50.906;4.198;2023-07-29T12:51:41;20.90;72.60
74617;DHT22;63123;50.906;4.198;2023-07-29T12:54:07;20.90;72.70
74617;DHT22;63123;50.906;4.198;2023-07-29T12:56:33;21.00;72.70
74617;DHT22;63123;50.906;4.198;2023-07-29T12:59:00;21.00;72.70
74617;DHT22;63123;50.906;4.198;2023-07-29T13:01:26;20.90;72.70
74617;DHT22;63123;50.906;4.198;2023-07-29T13:03:52;21.00;72.70
74617;DHT22;63123;50.906;4.198;2023-07-29T13:06:18;20.90;72.70
74617;DHT22;63123;50.906;4.198;2023-07-29T13:08:44;21.00;72.80
74617;DHT22;63123;50.906;4.198;2023-07-29T13:11:10;21.00;72.80
74617;DHT22;63123;50.906;4.198;2023-07-29T13:13:36;21.00;72.80
74617;DHT22;63123;50.906;4.198;2023-07-29T13:16:01;21.00;72.70
74617;DHT22;63123;50.906;4.198;2023-07-29T13:18:28;21.00;72.70
74617;DHT22;63123;50.906;4.198;2023-07-29T13:20:54;21.00;72.80
74617;DHT22;63123;50.906;4.198;2023-07-29T13:23:20;21.00;72.80
74617;DHT22;63123;50.906;4.198;2023-07-29T13:25:45;21.00;72.70
74617;DHT22;63123;50.906;4.198;2023-07-29T13:28:12;21.00;72.70
74617;DHT22;63123;50.906;4.198;2023-07-29T13:30:39;20.90;72.80
74617;DHT22;63123;50.906;4.198;2023-07-29T13:33:04;20.90;72.80
74617;DHT22;63123;50.906;4.198;2023-07-29T13:35:30;21.00;72.80
74617;DHT22;63123;50.906;4.198;2023-07-29T13:37:56;21.00;72.80
74617;DHT22;63123;50.906;4.198;2023-07-29T13:40:21;21.00;72.70
74617;DHT22;63123;50.906;4.198;2023-07-29T13:42:47;20.90;72.70
74617;DHT22;63123;50.906;4.198;2023-07-29T13:45:13;20.90;72.70
74617;DHT22;63123;50.906;4.198;2023-07-29T13:47:38;21.00;72.80
74617;DHT22;63123;50.906;4.198;2023-07-29T13:50:05;21.00;72.70
74617;DHT22;63123;50.906;4.198;2023-07-29T13:52:32;21.00;72.80
74617;DHT22;63123;50.906;4.198;2023-07-29T13:54:58;21.00;72.70
74617;DHT22;63123;50.906;4.198;2023-07-29T13:57:24;21.00;72.70
74617;DHT22;63123;50.906;4.198;2023-07-29T13:59:49;21.00;72.70
74617;DHT22;63123;50.906;4.198;2023-07-29T14:02:15;21.00;72.70
74617;DHT22;63123;50.906;4.198;2023-07-29T14:04:40;21.00;72.70
74617;DHT22;63123;50.906;4.198;2023-07-29T14:07:06;21.00;72.70
74617;DHT22;63123;50.906;4.198;2023-07-29T14:09:31;21.00;72.70
74617;DHT22;63123;50.906;4.198;2023-07-29T14:11:57;21.00;72.70
74617;DHT22;63123;50.906;4.198;2023-07-29T14:14:23;21.00;72.70
74617;DHT22;63123;50.906;4.198;2023-07-29T14:16:48;21.00;72.70
74617;DHT22;63123;50.906;4.198;2023-07-29T14:19:14;21.00;72.70
74617;DHT22;63123;50.906;4.198;2023-07-29T14:21:40;21.00;72.80
74617;DHT22;63123;50.906;4.198;2023-07-29T14:24:06;21.00;72.70
74617;DHT22;63123;50.906;4.198;2023-07-29T14:26:31;21.00;72.70
74617;DHT22;63123;50.906;4.198;2023-07-29T14:28:57;21.00;72.70
74617;DHT22;63123;50.906;4.198;2023-07-29T14:31:23;21.00;72.70
74617;DHT22;63123;50.906;4.198;2023-07-29T14:33:48;21.00;72.70
74617;DHT22;63123;50.906;4.198;2023-07-29T14:36:15;20.90;72.60
74617;DHT22;63123;50.906;4.198;2023-07-29T14:38:41;21.00;72.70
74617;DHT22;63123;50.906;4.198;2023-07-29T14:41:07;21.00;72.70
74617;DHT22;63123;50.906;4.198;2023-07-29T14:43:33;21.00;72.70
74617;DHT22;63123;50.906;4.198;2023-07-29T14:45:59;20.90;72.70
74617;DHT22;63123;50.906;4.198;2023-07-29T14:48:24;21.00;72.70
74617;DHT22;63123;50.906;4.198;2023-07-29T14:50:50;21.00;72.80
74617;DHT22;63123;50.906;4.198;2023-07-29T14:53:16;21.00;72.80
74617;DHT22;63123;50.906;4.198;2023-07-29T14:55:41;21.00;72.80
74617;DHT22;63123;50.906;4.198;2023-07-29T14:58:07;21.00;72.80
74617;DHT22;63123;50.906;4.198;2023-07-29T15:00:32;21.00;72.80
74617;DHT22;63123;50.906;4.198;2023-07-29T15:02:58;21.00;72.90
74617;DHT22;63123;50.906;4.198;2023-07-29T15:05:24;21.00;72.80
74617;DHT22;63123;50.906;4.198;2023-07-29T15:07:50;21.00;72.90
74617;DHT22;63123;50.906;4.198;2023-07-29T15:10:16;21.00;72.90
74617;DHT22;63123;50.906;4.198;2023-07-29T15:12:42;21.00;72.90
74617;DHT22;63123;50.906;4.198;2023-07-29T15:15:08;21.00;72.90
74617;DHT22;63123;50.906;4.198;2023-07-29T15:17:34;21.00;73.00
74617;DHT22;63123;50.906;4.198;2023-07-29T15:20:01;21.00;73.00
74617;DHT22;63123;50.906;4.198;2023-07-29T15:22:28;21.00;73.10
74617;DHT22;63123;50.906;4.198;2023-07-29T15:24:54;21.00;73.00
74617;DHT22;63123;50.906;4.198;2023-07-29T15:27:19;21.00;72.90
74617;DHT22;63123;50.906;4.198;2023-07-29T15:29:45;21.00;73.00